sensor_id;sensor_type;location;lat;lon;timestamp;P1;durP1;ratioP1;P2;durP2;ratioP2
69392;SDS011;56582;44.624;20.378;2023-07-30T00:00:39;16.57;;;14.77;;
69392;SDS011;56582;44.624;20.378;2023-07-30T00:03:04;17.90;;;16.10;;
69392;SDS011;56582;44.624;20.378;2023-07-30T00:05:30;17.70;;;14.60;;
69392;SDS011;56582;44.624;20.378;2023-07-30T00:07:56;18.17;;;14.13;;
69392;SDS011;56582;44.624;20.378;2023-07-30T00:10:21;17.13;;;15.00;;
69392;SDS011;56582;44.624;20.378;2023-07-30T00:12:47;17.20;;;14.60;;
69392;SDS011;56582;44.624;20.378;2023-07-30T00:15:12;18.83;;;15.43;;
69392;SDS011;56582;44.624;20.378;2023-07-30T00:17:38;18.20;;;16.03;;
69392;SDS011;56582;44.624;20.378;2023-07-30T00:20:04;18.85;;;15.65;;
69392;SDS011;56582;44.624;20.378;2023-07-30T00:22:31;18.13;;;16.23;;
69392;SDS011;56582;44.624;20.378;2023-07-30T00:24:57;18.88;;;16.38;;
69392;SDS011;56582;44.624;20.378;2023-07-30T00:27:22;19.40;;;16.90;;
69392;SDS011;56582;44.624;20.378;2023-07-30T00:29:48;19.53;;;17.53;;
69392;SDS011;56582;44.624;20.378;2023-07-30T00:32:13;20.67;;;17.67;;
69392;SDS011;56582;44.624;20.378;2023-07-30T00:34:41;22.15;;;17.58;;
69392;SDS011;56582;44.624;20.378;2023-07-30T00:37:06;19.67;;;17.67;;
69392;SDS011;56582;44.624;20.378;2023-07-30T00:39:32;20.77;;;17.27;;
69392;SDS011;56582;44.624;20.378;2023-07-30T00:41:57;20.10;;;17.87;;
69392;SDS011;56582;44.624;20.378;2023-07-30T00:44:22;20.30;;;17.53;;
69392;SDS011;56582;44.624;20.378;2023-07-30T00:46:48;20.00;;;17.75;;
69392;SDS011;56582;44.624;20.378;2023-07-30T00:49:14;20.15;;;17.50;;
69392;SDS011;56582;44.624;20.378;2023-07-30T00:51:40;21.13;;;18.93;;
69392;SDS011;56582;44.624;20.378;2023-07-30T00:54:06;20.23;;;18.08;;
69392;SDS011;56582;44.624;20.378;2023-07-30T00:56:31;20.00;;;17.90;;
69392;SDS011;56582;44.624;20.378;2023-07-30T00:58:57;21.30;;;19.00;;
69392;SDS011;56582;44.624;20.378;2023-07-30T01:01:23;22.00;;;19.77;;
69392;SDS011;56582;44.624;20.378;2023-07-30T01:03:49;23.58;;;20.02;;
69392;SDS011;56582;44.624;20.378;2023-07-30T01:06:15;20.67;;;18.48;;
69392;SDS011;56582;44.624;20.378;2023-07-30T01:08:40;23.00;;;19.50;;
69392;SDS011;56582;44.624;20.378;2023-07-30T01:11:06;23.30;;;19.70;;
69392;SDS011;56582;44.624;20.378;2023-07-30T01:13:33;27.97;;;20.00;;
69392;SDS011;56582;44.624;20.378;2023-07-30T01:16:00;24.98;;;20.48;;
69392;SDS011;56582;44.624;20.378;2023-07-30T01:18:25;24.40;;;20.85;;
69392;SDS011;56582;44.624;20.378;2023-07-30T01:20:55;24.40;;;20.43;;
69392;SDS011;56582;44.624;20.378;2023-07-30T01:23:23;23.80;;;20.45;;
69392;SDS011;56582;44.624;20.378;2023-07-30T01:25:48;23.77;;;19.37;;
69392;SDS011;56582;44.624;20.378;2023-07-30T01:28:19;24.75;;;19.95;;
69392;SDS011;56582;44.624;20.378;2023-07-30T01:30:46;24.65;;;20.92;;
69392;SDS011;56582;44.624;20.378;2023-07-30T01:33:13;24.33;;;21.80;;
69392;SDS011;56582;44.624;20.378;2023-07-30T01:35:39;28.20;;;21.77;;
69392;SDS011;56582;44.624;20.378;2023-07-30T01:38:08;24.52;;;20.67;;
69392;SDS011;56582;44.624;20.378;2023-07-30T01:40:34;23.50;;;21.00;;
69392;SDS011;56582;44.624;20.378;2023-07-30T01:43:00;26.60;;;22.97;;
69392;SDS011;56582;44.624;20.378;2023-07-30T01:45:25;26.73;;;21.73;;
69392;SDS011;56582;44.624;20.378;2023-07-30T01:47:51;34.83;;;23.63;;
69392;SDS011;56582;44.624;20.378;2023-07-30T01:50:16;26.10;;;21.73;;
69392;SDS011;56582;44.624;20.378;2023-07-30T01:52:41;27.03;;;22.67;;
69392;SDS011;56582;44.624;20.378;2023-07-30T01:55:07;24.90;;;22.00;;
69392;SDS011;56582;44.624;20.378;2023-07-30T01:57:33;27.45;;;21.40;;
69392;SDS011;56582;44.624;20.378;2023-07-30T01:59:58;24.17;;;21.03;;
69392;SDS011;56582;44.624;20.378;2023-07-30T02:02:24;24.37;;;21.83;;
69392;SDS011;56582;44.624;20.378;2023-07-30T02:04:49;24.83;;;21.88;;
69392;SDS011;56582;44.624;20.378;2023-07-30T02:07:14;27.10;;;22.90;;
69392;SDS011;56582;44.624;20.378;2023-07-30T02:09:40;27.10;;;23.13;;
69392;SDS011;56582;44.624;20.378;2023-07-30T02:12:05;30.10;;;22.27;;
69392;SDS011;56582;44.624;20.378;2023-07-30T02:14:31;29.40;;;23.05;;
69392;SDS011;56582;44.624;20.378;2023-07-30T02:16:57;24.67;;;22.07;;
69392;SDS011;56582;44.624;20.378;2023-07-30T02:19:22;24.50;;;21.80;;
69392;SDS011;56582;44.624;20.378;2023-07-30T02:21:48;24.60;;;21.53;;
69392;SDS011;56582;44.624;20.378;2023-07-30T02:24:13;27.83;;;22.50;;
69392;SDS011;56582;44.624;20.378;2023-07-30T02:26:39;24.50;;;21.93;;
69392;SDS011;56582;44.624;20.378;2023-07-30T02:29:04;27.02;;;22.70;;
69392;SDS011;56582;44.624;20.378;2023-07-30T02:31:30;24.03;;;21.30;;
69392;SDS011;56582;44.624;20.378;2023-07-30T02:33:55;25.38;;;22.23;;
69392;SDS011;56582;44.624;20.378;2023-07-30T02:36:21;26.03;;;21.90;;
69392;SDS011;56582;44.624;20.378;2023-07-30T02:38:49;26.58;;;22.48;;
69392;SDS011;56582;44.624;20.378;2023-07-30T02:41:15;25.77;;;23.00;;
69392;SDS011;56582;44.624;20.378;2023-07-30T02:43:41;25.60;;;22.77;;
69392;SDS011;56582;44.624;20.378;2023-07-30T02:46:07;26.13;;;23.33;;
69392;SDS011;56582;44.624;20.378;2023-07-30T02:48:32;27.10;;;22.43;;
69392;SDS011;56582;44.624;20.378;2023-07-30T02:50:58;26.30;;;23.50;;
69392;SDS011;56582;44.624;20.378;2023-07-30T02:53:23;27.77;;;24.83;;
69392;SDS011;56582;44.624;20.378;2023-07-30T02:55:49;25.97;;;23.17;;
69392;SDS011;56582;44.624;20.378;2023-07-30T02:58:14;28.80;;;24.83;;
69392;SDS011;56582;44.624;20.378;2023-07-30T03:00:39;29.53;;;24.83;;
69392;SDS011;56582;44.624;20.378;2023-07-30T03:03:05;28.50;;;24.07;;
69392;SDS011;56582;44.624;20.378;2023-07-30T03:05:30;27.90;;;23.70;;
69392;SDS011;56582;44.624;20.378;2023-07-30T03:07:56;28.03;;;25.00;;
69392;SDS011;56582;44.624;20.378;2023-07-30T03:10:21;27.47;;;24.37;;
69392;SDS011;56582;44.624;20.378;2023-07-30T03:12:47;26.47;;;23.67;;
69392;SDS011;56582;44.624;20.378;2023-07-30T03:15:12;26.02;;;22.67;;
69392;SDS011;56582;44.624;20.378;2023-07-30T03:17:38;29.37;;;24.27;;
69392;SDS011;56582;44.624;20.378;2023-07-30T03:20:03;26.73;;;23.57;;
69392;SDS011;56582;44.624;20.378;2023-07-30T03:22:29;26.50;;;23.50;;
69392;SDS011;56582;44.624;20.378;2023-07-30T03:24:55;27.35;;;23.73;;
69392;SDS011;56582;44.624;20.378;2023-07-30T03:27:20;27.83;;;24.40;;
69392;SDS011;56582;44.624;20.378;2023-07-30T03:29:46;26.07;;;23.27;;
69392;SDS011;56582;44.624;20.378;2023-07-30T03:32:11;25.90;;;22.60;;
69392;SDS011;56582;44.624;20.378;2023-07-30T03:34:36;27.10;;;24.30;;
69392;SDS011;56582;44.624;20.378;2023-07-30T03:37:02;25.80;;;23.00;;
69392;SDS011;56582;44.624;20.378;2023-07-30T03:39:27;26.13;;;22.63;;
69392;SDS011;56582;44.624;20.378;2023-07-30T03:41:53;26.53;;;23.33;;
69392;SDS011;56582;44.624;20.378;2023-07-30T03:44:18;27.42;;;24.45;;
69392;SDS011;56582;44.624;20.378;2023-07-30T03:46:44;26.57;;;23.43;;
69392;SDS011;56582;44.624;20.378;2023-07-30T03:49:09;28.40;;;23.60;;
69392;SDS011;56582;44.624;20.378;2023-07-30T03:51:35;27.50;;;24.53;;
69392;SDS011;56582;44.624;20.378;2023-07-30T03:54:00;28.42;;;24.92;;
69392;SDS011;56582;44.624;20.378;2023-07-30T03:56:26;26.77;;;23.87;;
69392;SDS011;56582;44.624;20.378;2023-07-30T03:58:51;26.93;;;24.03;;
69392;SDS011;56582;44.624;20.378;2023-07-30T04:01:16;31.57;;;24.77;;
69392;SDS011;56582;44.624;20.378;2023-07-30T04:03:42;28.42;;;25.33;;
69392;SDS011;56582;44.624;20.378;2023-07-30T04:06:07;26.70;;;23.87;;
69392;SDS011;56582;44.624;20.378;2023-07-30T04:08:33;30.70;;;24.47;;
69392;SDS011;56582;44.624;20.378;2023-07-30T04:10:58;28.07;;;23.87;;
69392;SDS011;56582;44.624;20.378;2023-07-30T04:13:24;29.70;;;25.48;;
69392;SDS011;56582;44.624;20.378;2023-07-30T04:15:49;29.30;;;26.17;;
69392;SDS011;56582;44.624;20.378;2023-07-30T04:18:15;26.90;;;24.10;;
69392;SDS011;56582;44.624;20.378;2023-07-30T04:20:40;25.73;;;22.93;;
69392;SDS011;56582;44.624;20.378;2023-07-30T04:23:05;27.45;;;24.65;;
69392;SDS011;56582;44.624;20.378;2023-07-30T04:25:31;28.03;;;23.50;;
69392;SDS011;56582;44.624;20.378;2023-07-30T04:27:56;26.87;;;23.97;;
69392;SDS011;56582;44.624;20.378;2023-07-30T04:30:22;29.03;;;25.80;;
69392;SDS011;56582;44.624;20.378;2023-07-30T04:32:47;28.27;;;24.77;;
69392;SDS011;56582;44.624;20.378;2023-07-30T04:35:13;27.57;;;24.57;;
69392;SDS011;56582;44.624;20.378;2023-07-30T04:37:38;32.10;;;25.23;;
69392;SDS011;56582;44.624;20.378;2023-07-30T04:40:04;26.73;;;23.88;;
69392;SDS011;56582;44.624;20.378;2023-07-30T04:42:30;26.77;;;23.97;;
69392;SDS011;56582;44.624;20.378;2023-07-30T04:44:55;28.25;;;24.92;;
69392;SDS011;56582;44.624;20.378;2023-07-30T04:47:20;26.50;;;23.30;;
69392;SDS011;56582;44.624;20.378;2023-07-30T04:49:46;27.57;;;24.67;;
69392;SDS011;56582;44.624;20.378;2023-07-30T04:52:11;26.07;;;23.07;;
69392;SDS011;56582;44.624;20.378;2023-07-30T04:54:37;28.40;;;24.17;;
69392;SDS011;56582;44.624;20.378;2023-07-30T04:57:03;26.63;;;23.67;;
69392;SDS011;56582;44.624;20.378;2023-07-30T04:59:28;26.48;;;23.63;;
69392;SDS011;56582;44.624;20.378;2023-07-30T05:01:54;26.10;;;23.10;;
69392;SDS011;56582;44.624;20.378;2023-07-30T05:04:19;26.83;;;24.00;;
69392;SDS011;56582;44.624;20.378;2023-07-30T05:06:45;27.27;;;24.37;;
69392;SDS011;56582;44.624;20.378;2023-07-30T05:09:10;26.15;;;23.45;;
69392;SDS011;56582;44.624;20.378;2023-07-30T05:11:36;25.60;;;22.97;;
69392;SDS011;56582;44.624;20.378;2023-07-30T05:14:03;26.73;;;23.98;;
69392;SDS011;56582;44.624;20.378;2023-07-30T05:16:28;28.43;;;23.80;;
69392;SDS011;56582;44.624;20.378;2023-07-30T05:18:54;26.33;;;23.60;;
69392;SDS011;56582;44.624;20.378;2023-07-30T05:21:20;27.37;;;23.30;;
69392;SDS011;56582;44.624;20.378;2023-07-30T05:23:45;26.85;;;24.15;;
69392;SDS011;56582;44.624;20.378;2023-07-30T05:26:10;26.17;;;23.37;;
69392;SDS011;56582;44.624;20.378;2023-07-30T05:28:36;29.23;;;24.20;;
69392;SDS011;56582;44.624;20.378;2023-07-30T05:31:01;26.00;;;22.10;;
69392;SDS011;56582;44.624;20.378;2023-07-30T05:33:27;26.90;;;23.38;;
69392;SDS011;56582;44.624;20.378;2023-07-30T05:35:52;24.90;;;22.30;;
69392;SDS011;56582;44.624;20.378;2023-07-30T05:38:18;25.10;;;22.40;;
69392;SDS011;56582;44.624;20.378;2023-07-30T05:40:46;24.73;;;22.20;;
69392;SDS011;56582;44.624;20.378;2023-07-30T05:43:12;26.20;;;22.27;;
69392;SDS011;56582;44.624;20.378;2023-07-30T05:45:38;24.30;;;21.80;;
69392;SDS011;56582;44.624;20.378;2023-07-30T05:48:03;25.43;;;22.63;;
69392;SDS011;56582;44.624;20.378;2023-07-30T05:50:28;24.40;;;21.87;;
69392;SDS011;56582;44.624;20.378;2023-07-30T05:52:54;24.50;;;22.10;;
69392;SDS011;56582;44.624;20.378;2023-07-30T05:55:19;24.70;;;21.60;;
69392;SDS011;56582;44.624;20.378;2023-07-30T05:57:45;22.93;;;20.63;;
69392;SDS011;56582;44.624;20.378;2023-07-30T06:00:10;22.00;;;19.70;;
69392;SDS011;56582;44.624;20.378;2023-07-30T06:02:36;23.10;;;20.48;;
69392;SDS011;56582;44.624;20.378;2023-07-30T06:05:02;21.00;;;18.80;;
69392;SDS011;56582;44.624;20.378;2023-07-30T06:07:27;22.55;;;18.73;;
69392;SDS011;56582;44.624;20.378;2023-07-30T06:09:53;22.23;;;19.83;;
69392;SDS011;56582;44.624;20.378;2023-07-30T06:12:18;23.33;;;19.33;;
69392;SDS011;56582;44.624;20.378;2023-07-30T06:14:43;22.87;;;20.43;;
69392;SDS011;56582;44.624;20.378;2023-07-30T06:17:09;21.53;;;19.10;;
69392;SDS011;56582;44.624;20.378;2023-07-30T06:19:34;22.92;;;20.63;;
69392;SDS011;56582;44.624;20.378;2023-07-30T06:22:00;20.53;;;18.40;;
69392;SDS011;56582;44.624;20.378;2023-07-30T06:24:25;22.27;;;19.70;;
69392;SDS011;56582;44.624;20.378;2023-07-30T06:26:50;22.37;;;18.97;;
69392;SDS011;56582;44.624;20.378;2023-07-30T06:29:16;21.38;;;19.02;;
69392;SDS011;56582;44.624;20.378;2023-07-30T06:31:42;21.50;;;18.63;;
69392;SDS011;56582;44.624;20.378;2023-07-30T06:34:07;21.93;;;19.83;;
69392;SDS011;56582;44.624;20.378;2023-07-30T06:36:33;20.75;;;18.55;;
69392;SDS011;56582;44.624;20.378;2023-07-30T06:38:58;24.53;;;18.40;;
69392;SDS011;56582;44.624;20.378;2023-07-30T06:41:24;19.97;;;17.40;;
69392;SDS011;56582;44.624;20.378;2023-07-30T06:43:49;20.73;;;18.35;;
69392;SDS011;56582;44.624;20.378;2023-07-30T06:46:15;19.23;;;17.33;;
69392;SDS011;56582;44.624;20.378;2023-07-30T06:48:40;20.03;;;17.93;;
69392;SDS011;56582;44.624;20.378;2023-07-30T06:51:06;18.52;;;16.42;;
69392;SDS011;56582;44.624;20.378;2023-07-30T06:53:32;20.08;;;17.98;;
69392;SDS011;56582;44.624;20.378;2023-07-30T06:55:58;18.47;;;16.57;;
69392;SDS011;56582;44.624;20.378;2023-07-30T06:58:23;21.23;;;19.13;;
69392;SDS011;56582;44.624;20.378;2023-07-30T07:00:48;19.17;;;17.23;;
69392;SDS011;56582;44.624;20.378;2023-07-30T07:03:14;19.38;;;16.58;;
69392;SDS011;56582;44.624;20.378;2023-07-30T07:05:39;20.67;;;16.27;;
69392;SDS011;56582;44.624;20.378;2023-07-30T07:08:05;17.67;;;15.80;;
69392;SDS011;56582;44.624;20.378;2023-07-30T07:10:30;19.65;;;17.27;;
69392;SDS011;56582;44.624;20.378;2023-07-30T07:12:56;20.03;;;17.90;;
69392;SDS011;56582;44.624;20.378;2023-07-30T07:15:21;19.17;;;17.27;;
69392;SDS011;56582;44.624;20.378;2023-07-30T07:17:47;20.37;;;18.00;;
69392;SDS011;56582;44.624;20.378;2023-07-30T07:20:12;19.73;;;16.85;;
69392;SDS011;56582;44.624;20.378;2023-07-30T07:22:38;19.67;;;15.80;;
69392;SDS011;56582;44.624;20.378;2023-07-30T07:25:03;18.90;;;16.93;;
69392;SDS011;56582;44.624;20.378;2023-07-30T07:27:29;17.25;;;15.52;;
69392;SDS011;56582;44.624;20.378;2023-07-30T07:29:54;17.60;;;15.53;;
69392;SDS011;56582;44.624;20.378;2023-07-30T07:32:20;17.93;;;15.83;;
69392;SDS011;56582;44.624;20.378;2023-07-30T07:34:46;17.80;;;16.10;;
69392;SDS011;56582;44.624;20.378;2023-07-30T07:37:13;17.33;;;15.00;;
69392;SDS011;56582;44.624;20.378;2023-07-30T07:39:40;18.58;;;14.70;;
69392;SDS011;56582;44.624;20.378;2023-07-30T07:42:06;16.92;;;14.65;;
69392;SDS011;56582;44.624;20.378;2023-07-30T07:44:31;15.93;;;14.23;;
69392;SDS011;56582;44.624;20.378;2023-07-30T07:46:57;16.35;;;14.65;;
69392;SDS011;56582;44.624;20.378;2023-07-30T07:49:22;19.00;;;14.90;;
69392;SDS011;56582;44.624;20.378;2023-07-30T07:51:48;17.13;;;14.37;;
69392;SDS011;56582;44.624;20.378;2023-07-30T07:54:13;17.02;;;14.27;;
69392;SDS011;56582;44.624;20.378;2023-07-30T07:56:39;15.47;;;13.67;;
69392;SDS011;56582;44.624;20.378;2023-07-30T07:59:04;14.60;;;13.10;;
69392;SDS011;56582;44.624;20.378;2023-07-30T08:01:30;14.40;;;12.90;;
69392;SDS011;56582;44.624;20.378;2023-07-30T08:03:55;15.43;;;13.63;;
69392;SDS011;56582;44.624;20.378;2023-07-30T08:06:21;15.63;;;14.03;;
69392;SDS011;56582;44.624;20.378;2023-07-30T08:08:46;15.67;;;14.10;;
69392;SDS011;56582;44.624;20.378;2023-07-30T08:11:11;15.23;;;13.00;;
69392;SDS011;56582;44.624;20.378;2023-07-30T08:13:37;13.32;;;10.95;;
69392;SDS011;56582;44.624;20.378;2023-07-30T08:16:02;13.20;;;10.50;;
69392;SDS011;56582;44.624;20.378;2023-07-30T08:18:28;12.67;;;11.37;;
69392;SDS011;56582;44.624;20.378;2023-07-30T08:20:53;12.03;;;10.47;;
69392;SDS011;56582;44.624;20.378;2023-07-30T08:23:20;11.03;;;9.80;;
69392;SDS011;56582;44.624;20.378;2023-07-30T08:25:46;10.90;;;9.75;;
69392;SDS011;56582;44.624;20.378;2023-07-30T08:28:12;9.35;;;8.00;;
69392;SDS011;56582;44.624;20.378;2023-07-30T08:30:37;9.77;;;7.20;;
69392;SDS011;56582;44.624;20.378;2023-07-30T08:33:03;10.40;;;8.63;;
69392;SDS011;56582;44.624;20.378;2023-07-30T08:35:28;11.90;;;9.07;;
69392;SDS011;56582;44.624;20.378;2023-07-30T08:37:54;12.47;;;10.07;;
69392;SDS011;56582;44.624;20.378;2023-07-30T08:40:21;12.57;;;10.68;;
69392;SDS011;56582;44.624;20.378;2023-07-30T08:42:53;12.25;;;10.75;;
69392;SDS011;56582;44.624;20.378;2023-07-30T08:45:19;11.05;;;9.93;;
69392;SDS011;56582;44.624;20.378;2023-07-30T08:47:45;10.07;;;9.00;;
69392;SDS011;56582;44.624;20.378;2023-07-30T08:50:11;11.85;;;9.95;;
69392;SDS011;56582;44.624;20.378;2023-07-30T08:52:38;11.45;;;9.93;;
69392;SDS011;56582;44.624;20.378;2023-07-30T08:55:04;12.17;;;10.90;;
69392;SDS011;56582;44.624;20.378;2023-07-30T08:57:30;11.85;;;10.63;;
69392;SDS011;56582;44.624;20.378;2023-07-30T09:02:43;12.70;;;10.35;;
69392;SDS011;56582;44.624;20.378;2023-07-30T09:05:13;10.80;;;9.55;;
69392;SDS011;56582;44.624;20.378;2023-07-30T09:07:38;12.27;;;9.87;;
69392;SDS011;56582;44.624;20.378;2023-07-30T09:10:04;10.98;;;9.82;;
69392;SDS011;56582;44.624;20.378;2023-07-30T09:12:31;12.70;;;10.30;;
69392;SDS011;56582;44.624;20.378;2023-07-30T09:14:57;10.90;;;9.07;;
69392;SDS011;56582;44.624;20.378;2023-07-30T09:17:23;11.10;;;9.90;;
69392;SDS011;56582;44.624;20.378;2023-07-30T09:19:50;12.38;;;10.18;;
69392;SDS011;56582;44.624;20.378;2023-07-30T09:22:29;12.80;;;9.68;;
69392;SDS011;56582;44.624;20.378;2023-07-30T09:24:55;11.10;;;9.07;;
69392;SDS011;56582;44.624;20.378;2023-07-30T09:27:22;10.90;;;9.77;;
69392;SDS011;56582;44.624;20.378;2023-07-30T09:29:57;11.55;;;10.30;;
69392;SDS011;56582;44.624;20.378;2023-07-30T09:32:30;12.65;;;11.40;;
69392;SDS011;56582;44.624;20.378;2023-07-30T09:35:32;12.20;;;10.98;;
69392;SDS011;56582;44.624;20.378;2023-07-30T09:37:50;11.37;;;10.17;;
69392;SDS011;56582;44.624;20.378;2023-07-30T09:40:30;12.18;;;10.88;;
69392;SDS011;56582;44.624;20.378;2023-07-30T09:43:00;12.32;;;10.38;;
69392;SDS011;56582;44.624;20.378;2023-07-30T09:45:28;12.52;;;11.20;;
69392;SDS011;56582;44.624;20.378;2023-07-30T09:47:59;13.20;;;11.25;;
69392;SDS011;56582;44.624;20.378;2023-07-30T09:50:24;22.97;;;11.10;;
69392;SDS011;56582;44.624;20.378;2023-07-30T09:52:50;13.33;;;10.77;;
69392;SDS011;56582;44.624;20.378;2023-07-30T09:55:15;13.40;;;11.70;;
69392;SDS011;56582;44.624;20.378;2023-07-30T09:57:41;11.33;;;10.17;;
69392;SDS011;56582;44.624;20.378;2023-07-30T10:00:08;11.35;;;9.60;;
69392;SDS011;56582;44.624;20.378;2023-07-30T10:02:38;12.02;;;10.45;;
69392;SDS011;56582;44.624;20.378;2023-07-30T10:05:10;9.27;;;8.25;;
69392;SDS011;56582;44.624;20.378;2023-07-30T10:10:32;15.00;;;9.87;;
69392;SDS011;56582;44.624;20.378;2023-07-30T10:13:00;11.60;;;10.32;;
69392;SDS011;56582;44.624;20.378;2023-07-30T10:15:28;12.45;;;9.13;;
69392;SDS011;56582;44.624;20.378;2023-07-30T10:17:59;11.40;;;10.20;;
69392;SDS011;56582;44.624;20.378;2023-07-30T10:20:29;11.50;;;9.63;;
69392;SDS011;56582;44.624;20.378;2023-07-30T10:22:59;10.40;;;9.30;;
69392;SDS011;56582;44.624;20.378;2023-07-30T10:25:45;11.50;;;9.88;;
69392;SDS011;56582;44.624;20.378;2023-07-30T10:28:33;11.13;;;9.70;;
69392;SDS011;56582;44.624;20.378;2023-07-30T10:31:00;11.90;;;8.77;;
69392;SDS011;56582;44.624;20.378;2023-07-30T10:33:49;10.82;;;9.73;;
69392;SDS011;56582;44.624;20.378;2023-07-30T10:36:32;11.02;;;9.93;;
69392;SDS011;56582;44.624;20.378;2023-07-30T10:41:49;10.15;;;9.07;;
69392;SDS011;56582;44.624;20.378;2023-07-30T10:44:22;11.57;;;9.20;;
69392;SDS011;56582;44.624;20.378;2023-07-30T10:46:59;10.52;;;8.68;;
69392;SDS011;56582;44.624;20.378;2023-07-30T10:49:25;10.57;;;9.00;;
69392;SDS011;56582;44.624;20.378;2023-07-30T10:51:55;10.80;;;9.60;;
69392;SDS011;56582;44.624;20.378;2023-07-30T10:54:24;11.00;;;9.67;;
69392;SDS011;56582;44.624;20.378;2023-07-30T10:56:50;11.50;;;9.55;;
69392;SDS011;56582;44.624;20.378;2023-07-30T10:59:16;12.65;;;9.75;;
69392;SDS011;56582;44.624;20.378;2023-07-30T11:01:43;10.60;;;9.45;;
69392;SDS011;56582;44.624;20.378;2023-07-30T11:04:10;11.20;;;9.03;;
69392;SDS011;56582;44.624;20.378;2023-07-30T11:06:47;13.15;;;10.63;;
69392;SDS011;56582;44.624;20.378;2023-07-30T11:09:25;14.38;;;9.27;;
69392;SDS011;56582;44.624;20.378;2023-07-30T11:11:51;9.77;;;8.77;;
69392;SDS011;56582;44.624;20.378;2023-07-30T11:14:19;12.10;;;9.23;;
69392;SDS011;56582;44.624;20.378;2023-07-30T11:16:50;11.77;;;10.07;;
69392;SDS011;56582;44.624;20.378;2023-07-30T11:19:17;10.25;;;9.15;;
69392;SDS011;56582;44.624;20.378;2023-07-30T11:21:47;11.30;;;9.23;;
69392;SDS011;56582;44.624;20.378;2023-07-30T11:24:13;11.23;;;9.57;;
69392;SDS011;56582;44.624;20.378;2023-07-30T11:26:39;12.60;;;9.83;;
69392;SDS011;56582;44.624;20.378;2023-07-30T11:29:17;11.75;;;10.55;;
69392;SDS011;56582;44.624;20.378;2023-07-30T11:31:43;11.30;;;10.00;;
69392;SDS011;56582;44.624;20.378;2023-07-30T11:34:10;11.00;;;9.90;;
69392;SDS011;56582;44.624;20.378;2023-07-30T11:36:36;12.45;;;10.63;;
69392;SDS011;56582;44.624;20.378;2023-07-30T11:39:02;11.23;;;9.10;;
69392;SDS011;56582;44.624;20.378;2023-07-30T11:41:29;12.25;;;9.63;;
69392;SDS011;56582;44.624;20.378;2023-07-30T11:43:55;12.57;;;9.77;;
69392;SDS011;56582;44.624;20.378;2023-07-30T11:46:20;11.05;;;9.63;;
69392;SDS011;56582;44.624;20.378;2023-07-30T11:48:48;11.43;;;10.27;;
69392;SDS011;56582;44.624;20.378;2023-07-30T11:51:23;12.43;;;10.10;;
69392;SDS011;56582;44.624;20.378;2023-07-30T11:53:56;12.27;;;9.40;;
69392;SDS011;56582;44.624;20.378;2023-07-30T11:58:56;10.85;;;9.75;;
69392;SDS011;56582;44.624;20.378;2023-07-30T12:01:32;12.30;;;10.55;;
69392;SDS011;56582;44.624;20.378;2023-07-30T12:04:05;13.65;;;10.73;;
69392;SDS011;56582;44.624;20.378;2023-07-30T12:06:41;11.90;;;10.67;;
69392;SDS011;56582;44.624;20.378;2023-07-30T12:11:56;11.98;;;10.73;;
69392;SDS011;56582;44.624;20.378;2023-07-30T12:14:26;24.90;;;18.92;;
69392;SDS011;56582;44.624;20.378;2023-07-30T12:17:08;11.60;;;10.40;;
69392;SDS011;56582;44.624;20.378;2023-07-30T12:19:34;11.97;;;10.30;;
69392;SDS011;56582;44.624;20.378;2023-07-30T12:22:01;14.20;;;12.25;;
69392;SDS011;56582;44.624;20.378;2023-07-30T12:24:27;13.07;;;11.70;;
69392;SDS011;56582;44.624;20.378;2023-07-30T12:26:52;13.35;;;9.27;;
69392;SDS011;56582;44.624;20.378;2023-07-30T12:29:17;12.47;;;10.40;;
69392;SDS011;56582;44.624;20.378;2023-07-30T12:31:43;12.33;;;9.60;;
69392;SDS011;56582;44.624;20.378;2023-07-30T12:34:10;15.15;;;11.57;;
69392;SDS011;56582;44.624;20.378;2023-07-30T12:36:36;13.27;;;10.73;;
69392;SDS011;56582;44.624;20.378;2023-07-30T12:39:02;15.63;;;10.18;;
69392;SDS011;56582;44.624;20.378;2023-07-30T12:41:27;24.40;;;18.10;;
69392;SDS011;56582;44.624;20.378;2023-07-30T12:43:53;15.05;;;10.27;;
69392;SDS011;56582;44.624;20.378;2023-07-30T12:46:21;13.87;;;10.03;;
69392;SDS011;56582;44.624;20.378;2023-07-30T12:48:46;20.17;;;14.40;;
69392;SDS011;56582;44.624;20.378;2023-07-30T12:51:12;12.50;;;10.07;;
69392;SDS011;56582;44.624;20.378;2023-07-30T12:53:37;13.37;;;9.80;;
69392;SDS011;56582;44.624;20.378;2023-07-30T12:56:03;13.60;;;10.23;;
69392;SDS011;56582;44.624;20.378;2023-07-30T12:58:28;12.67;;;9.20;;
69392;SDS011;56582;44.624;20.378;2023-07-30T13:00:54;12.40;;;8.17;;
69392;SDS011;56582;44.624;20.378;2023-07-30T13:03:19;12.70;;;9.23;;
69392;SDS011;56582;44.624;20.378;2023-07-30T13:05:45;9.00;;;6.97;;
69392;SDS011;56582;44.624;20.378;2023-07-30T13:08:10;12.13;;;7.60;;
69392;SDS011;56582;44.624;20.378;2023-07-30T13:10:36;8.30;;;6.72;;
69392;SDS011;56582;44.624;20.378;2023-07-30T13:13:01;11.83;;;8.67;;
69392;SDS011;56582;44.624;20.378;2023-07-30T13:15:27;12.50;;;8.40;;
69392;SDS011;56582;44.624;20.378;2023-07-30T13:17:53;9.80;;;7.97;;
69392;SDS011;56582;44.624;20.378;2023-07-30T13:20:19;11.57;;;7.50;;
69392;SDS011;56582;44.624;20.378;2023-07-30T13:22:44;10.20;;;8.65;;
69392;SDS011;56582;44.624;20.378;2023-07-30T13:25:10;8.80;;;7.20;;
69392;SDS011;56582;44.624;20.378;2023-07-30T13:27:35;9.50;;;7.50;;
69392;SDS011;56582;44.624;20.378;2023-07-30T13:30:01;9.43;;;7.20;;
69392;SDS011;56582;44.624;20.378;2023-07-30T13:32:26;11.73;;;8.63;;
69392;SDS011;56582;44.624;20.378;2023-07-30T13:34:52;8.85;;;7.93;;
69392;SDS011;56582;44.624;20.378;2023-07-30T13:37:18;10.73;;;7.33;;
69392;SDS011;56582;44.624;20.378;2023-07-30T13:39:43;9.82;;;7.68;;
69392;SDS011;56582;44.624;20.378;2023-07-30T13:42:09;8.83;;;7.60;;
69392;SDS011;56582;44.624;20.378;2023-07-30T13:44:34;10.77;;;7.67;;
69392;SDS011;56582;44.624;20.378;2023-07-30T13:47:00;10.25;;;7.50;;
69392;SDS011;56582;44.624;20.378;2023-07-30T13:49:25;12.53;;;7.93;;
69392;SDS011;56582;44.624;20.378;2023-07-30T13:51:51;10.53;;;7.43;;
69392;SDS011;56582;44.624;20.378;2023-07-30T13:54:16;16.30;;;8.07;;
69392;SDS011;56582;44.624;20.378;2023-07-30T13:56:42;8.57;;;7.63;;
69392;SDS011;56582;44.624;20.378;2023-07-30T13:59:07;11.60;;;8.07;;
69392;SDS011;56582;44.624;20.378;2023-07-30T14:01:33;10.43;;;8.03;;
69392;SDS011;56582;44.624;20.378;2023-07-30T14:03:58;11.00;;;8.00;;
69392;SDS011;56582;44.624;20.378;2023-07-30T14:06:24;12.93;;;8.80;;
69392;SDS011;56582;44.624;20.378;2023-07-30T14:08:49;11.23;;;9.25;;
69392;SDS011;56582;44.624;20.378;2023-07-30T14:11:15;11.87;;;9.13;;
69392;SDS011;56582;44.624;20.378;2023-07-30T14:13:40;11.23;;;8.10;;
69392;SDS011;56582;44.624;20.378;2023-07-30T14:16:06;9.97;;;6.50;;
69392;SDS011;56582;44.624;20.378;2023-07-30T14:18:32;9.35;;;7.05;;
69392;SDS011;56582;44.624;20.378;2023-07-30T14:20:58;13.27;;;8.67;;
69392;SDS011;56582;44.624;20.378;2023-07-30T14:23:23;10.52;;;7.70;;